createdAt,value
2024-02-19T00:01:19.900Z,101420.39
2024-02-19T00:03:49.933Z,101415.05
2024-02-19T00:06:18.320Z,101414.35
2024-02-19T00:08:46.512Z,101418.82
2024-02-19T00:11:15.275Z,101415.89
2024-02-19T00:13:45.289Z,101417.77
2024-02-19T00:16:13.391Z,101417.92
2024-02-19T00:18:41.811Z,101420.15
2024-02-19T00:21:10.199Z,101421.36
2024-02-19T00:23:38.428Z,101417.58
2024-02-19T00:26:07.334Z,101414.12
2024-02-19T00:28:35.476Z,101411.69
2024-02-19T00:31:03.690Z,101408.73
2024-02-19T00:33:32.749Z,101406.11
2024-02-19T00:36:00.768Z,101402.95
2024-02-19T00:38:28.743Z,101404.27
2024-02-19T00:40:56.980Z,101404.79
2024-02-19T00:43:25.200Z,101408.39
2024-02-19T00:45:53.489Z,101409.75
2024-02-19T00:48:21.597Z,101410.09
2024-02-19T00:50:50.376Z,101403.88
2024-02-19T00:53:18.404Z,101401.79
2024-02-19T00:55:46.819Z,101405.40
2024-02-19T00:58:14.870Z,101402.82
2024-02-19T01:00:42.962Z,101403.67
2024-02-19T01:03:12.665Z,101402.11
2024-02-19T01:05:41.328Z,101404.52
2024-02-19T01:08:09.624Z,101398.65
2024-02-19T01:10:37.774Z,101394.48
2024-02-19T01:13:05.855Z,101398.30
2024-02-19T01:15:34.205Z,101401.39
2024-02-19T01:18:02.598Z,101397.61
2024-02-19T01:20:31.946Z,101397.41
2024-02-19T01:23:00.898Z,101394.97
2024-02-19T01:25:29.118Z,101389.97
2024-02-19T01:27:57.192Z,101388.24
2024-02-19T01:30:26.166Z,101385.30
2024-02-19T01:32:54.236Z,101379.95
2024-02-19T01:35:23.502Z,101374.61
2024-02-19T01:37:51.707Z,101374.10
2024-02-19T01:40:20.118Z,101369.77
2024-02-19T01:42:48.204Z,101370.64
2024-02-19T01:45:27.022Z,101363.77
2024-02-19T01:48:00.015Z,101359.46
2024-02-19T01:50:36.918Z,101360.80
2024-02-19T01:53:10.630Z,101358.36
2024-02-19T01:55:39.679Z,101357.45
2024-02-19T01:58:08.261Z,101356.73
2024-02-19T02:00:42.097Z,101353.98
2024-02-19T02:03:19.232Z,101352.74
2024-02-19T02:05:49.204Z,101349.79
2024-02-19T02:08:17.767Z,101346.30
2024-02-19T02:10:46.074Z,101344.75
2024-02-19T02:13:14.201Z,101343.88
2024-02-19T02:15:42.131Z,101339.56
2024-02-19T02:18:10.343Z,101340.41
2024-02-19T02:20:38.508Z,101339.21
2024-02-19T02:23:06.650Z,101338.51
2024-02-19T02:25:35.053Z,101337.29
2024-02-19T02:28:03.110Z,101335.41
2024-02-19T02:30:31.157Z,101331.63
2024-02-19T02:32:59.291Z,101332.69
2024-02-19T02:35:27.427Z,101328.55
2024-02-19T02:37:55.868Z,101328.20
2024-02-19T02:40:23.950Z,101328.17
2024-02-19T02:42:52.337Z,101326.42
2024-02-19T02:45:20.440Z,101326.93
2024-02-19T02:47:48.345Z,101324.87
2024-02-19T02:50:16.820Z,101321.95
2024-02-19T02:52:45.214Z,101323.14
2024-02-19T02:55:13.542Z,101323.33
2024-02-19T02:57:41.765Z,101322.84
2024-02-19T03:00:10.649Z,101325.25
2024-02-19T03:02:38.789Z,101320.08
2024-02-19T03:05:07.490Z,101323.70
2024-02-19T03:07:36.072Z,101323.02
2024-02-19T03:10:04.590Z,101322.46
2024-02-19T03:12:32.985Z,101322.58
2024-02-19T03:15:01.406Z,101323.54
2024-02-19T03:17:29.841Z,101322.93
2024-02-19T03:19:57.957Z,101324.91
2024-02-19T03:22:27.275Z,101320.02
2024-02-19T03:24:55.842Z,101320.30
2024-02-19T03:27:23.945Z,101321.30
2024-02-19T03:29:52.444Z,101320.05
2024-02-19T03:32:20.256Z,101316.95
2024-02-19T03:34:48.182Z,101314.01
2024-02-19T03:37:17.379Z,101315.21
2024-02-19T03:39:45.761Z,101313.33
2024-02-19T03:42:13.837Z,101316.10
2024-02-19T03:44:41.954Z,101316.11
2024-02-19T03:47:10.073Z,101313.20
2024-02-19T03:49:38.151Z,101312.20
2024-02-19T03:52:06.305Z,101311.17
2024-02-19T03:54:34.726Z,101314.27
2024-02-19T03:57:02.793Z,101314.45
2024-02-19T03:59:32.987Z,101312.55
2024-02-19T04:02:01.039Z,101311.64
2024-02-19T04:04:29.570Z,101309.54
2024-02-19T04:06:58.137Z,101317.09
2024-02-19T04:09:26.617Z,101318.26
2024-02-19T04:11:54.656Z,101314.46
2024-02-19T04:14:22.822Z,101318.09
2024-02-19T04:16:51.055Z,101312.73
2024-02-19T04:19:19.187Z,101312.70
2024-02-19T04:21:47.443Z,101310.29
2024-02-19T04:24:15.736Z,101312.88
2024-02-19T04:26:44.066Z,101314.73
2024-02-19T04:29:12.379Z,101314.03
2024-02-19T04:31:42.250Z,101317.09
2024-02-19T04:34:10.793Z,101317.92
2024-02-19T04:36:38.862Z,101315.83
2024-02-19T04:39:06.820Z,101314.09
2024-02-19T04:41:34.829Z,101315.83
2024-02-19T04:44:02.919Z,101313.72
2024-02-19T04:46:34.042Z,101310.25
2024-02-19T04:49:02.083Z,101309.20
2024-02-19T04:51:30.530Z,101308.36
2024-02-19T04:53:58.552Z,101306.81
2024-02-19T04:56:26.756Z,101304.59
2024-02-19T04:58:56.255Z,101303.94
2024-02-19T05:01:24.516Z,101301.20
2024-02-19T05:03:55.709Z,101295.90
2024-02-19T05:06:24.496Z,101291.79
2024-02-19T05:08:52.904Z,101288.86
2024-02-19T05:11:20.973Z,101280.61
2024-02-19T05:13:49.016Z,101277.02
2024-02-19T05:16:17.330Z,101277.02
2024-02-19T05:18:46.215Z,101282.40
2024-02-19T05:21:15.181Z,101284.57
2024-02-19T05:23:43.297Z,101284.97
2024-02-19T05:26:11.290Z,101287.59
2024-02-19T05:28:39.642Z,101289.89
2024-02-19T05:31:07.980Z,101295.16
2024-02-19T05:33:36.022Z,101296.77
2024-02-19T05:36:04.594Z,101300.11
2024-02-19T05:38:33.547Z,101292.38
2024-02-19T05:41:02.512Z,101288.24
2024-02-19T05:43:30.397Z,101283.58
2024-02-19T05:45:58.339Z,101287.38
2024-02-19T05:48:26.480Z,101289.98
2024-02-19T05:50:54.599Z,101287.09
2024-02-19T05:53:23.135Z,101285.58
2024-02-19T05:55:50.993Z,101286.13
2024-02-19T05:58:19.354Z,101285.80
2024-02-19T06:00:48.089Z,101279.12
2024-02-19T06:03:16.364Z,101284.69
2024-02-19T06:05:44.541Z,101288.89
2024-02-19T06:08:12.498Z,101289.10
2024-02-19T06:10:41.087Z,101283.80
2024-02-19T06:13:09.897Z,101276.39
2024-02-19T06:15:38.255Z,101268.45
2024-02-19T06:18:07.225Z,101268.64
2024-02-19T06:20:36.175Z,101270.56
2024-02-19T06:23:05.146Z,101267.81
2024-02-19T06:25:34.613Z,101276.44
2024-02-19T06:28:03.733Z,101277.66
2024-02-19T06:30:31.814Z,101279.56
2024-02-19T06:33:00.240Z,101275.42
2024-02-19T06:35:28.897Z,101276.27
2024-02-19T06:37:57.235Z,101274.20
2024-02-19T06:40:25.607Z,101272.50
2024-02-19T06:42:55.367Z,101273.55
2024-02-19T06:45:24.053Z,101271.50
2024-02-19T06:47:52.219Z,101266.33
2024-02-19T06:50:20.540Z,101269.61
2024-02-19T06:52:48.584Z,101269.98
2024-02-19T06:55:17.735Z,101268.27
2024-02-19T06:57:46.201Z,101263.31
2024-02-19T07:00:14.889Z,101265.05
2024-02-19T07:02:43.002Z,101267.15
2024-02-19T07:05:11.304Z,101266.13
2024-02-19T07:07:39.408Z,101261.69
2024-02-19T07:10:08.483Z,101258.63
2024-02-19T07:12:36.678Z,101259.71
2024-02-19T07:15:05.146Z,101260.96
2024-02-19T07:17:33.293Z,101257.58
2024-02-19T07:20:01.558Z,101254.69
2024-02-19T07:22:29.972Z,101248.51
2024-02-19T07:25:09.390Z,101254.58
2024-02-19T07:27:42.194Z,101260.83
2024-02-19T07:30:12.371Z,101263.11
2024-02-19T07:32:40.660Z,101267.09
2024-02-19T07:35:09.013Z,101272.64
2024-02-19T07:37:37.389Z,101268.86
2024-02-19T07:40:07.710Z,101268.52
2024-02-19T07:42:37.542Z,101269.06
2024-02-19T07:45:08.766Z,101269.06
2024-02-19T07:47:37.263Z,101264.92
2024-02-19T07:50:05.795Z,101257.35
2024-02-19T07:52:34.190Z,101259.11
2024-02-19T07:55:02.236Z,101256.20
2024-02-19T07:57:30.565Z,101251.23
2024-02-19T07:59:59.318Z,101250.54
2024-02-19T08:02:27.525Z,101251.58
2024-02-19T08:04:57.007Z,101252.45
2024-02-19T08:07:25.277Z,101251.60
2024-02-19T08:09:53.538Z,101249.52
2024-02-19T08:12:22.907Z,101250.73
2024-02-19T08:14:51.746Z,101252.61
2024-02-19T08:17:20.218Z,101253.47
2024-02-19T08:19:48.178Z,101255.52
2024-02-19T08:22:16.206Z,101255.00
2024-02-19T08:24:44.538Z,101246.15
2024-02-19T08:27:12.696Z,101244.23
2024-02-19T08:29:41.031Z,101242.83
2024-02-19T08:32:09.646Z,101238.30
2024-02-19T08:34:37.893Z,101235.83
2024-02-19T08:37:07.169Z,101232.50
2024-02-19T08:39:35.377Z,101228.98
2024-02-19T08:42:03.681Z,101232.05
2024-02-19T08:44:31.846Z,101229.77
2024-02-19T08:47:06.536Z,101229.19
2024-02-19T08:49:35.129Z,101231.72
2024-02-19T08:52:03.464Z,101231.64
2024-02-19T08:54:31.486Z,101228.42
2024-02-19T08:56:59.787Z,101225.89
2024-02-19T08:59:28.054Z,101227.72
2024-02-19T09:01:56.577Z,101230.42
2024-02-19T09:04:27.694Z,101232.05
2024-02-19T09:06:56.391Z,101231.98
2024-02-19T09:09:24.471Z,101227.08
2024-02-19T09:11:52.661Z,101223.03
2024-02-19T09:14:21.170Z,101223.64
2024-02-19T09:16:50.156Z,101224.25
2024-02-19T09:19:19.933Z,101224.60
2024-02-19T09:21:48.196Z,101224.27
2024-02-19T09:24:16.946Z,101223.91
2024-02-19T09:26:45.138Z,101222.20
2024-02-19T09:29:13.123Z,101216.20
2024-02-19T09:31:41.549Z,101212.78
2024-02-19T09:34:09.644Z,101210.41
2024-02-19T09:36:37.860Z,101210.31
2024-02-19T09:39:07.685Z,101210.31
2024-02-19T09:41:35.961Z,101208.16
2024-02-19T09:44:04.417Z,101205.19
2024-02-19T09:46:32.588Z,101204.42
2024-02-19T09:49:02.082Z,101198.77
2024-02-19T09:51:37.192Z,101196.23
2024-02-19T09:54:10.723Z,101194.80
2024-02-19T09:56:39.120Z,101192.41
2024-02-19T09:59:08.261Z,101188.93
2024-02-19T10:01:36.312Z,101187.35
2024-02-19T10:04:07.677Z,101183.48
2024-02-19T10:06:38.146Z,101179.70
2024-02-19T10:09:09.421Z,101177.80
2024-02-19T10:11:38.023Z,101172.92
2024-02-19T10:14:06.757Z,101170.55
2024-02-19T10:16:35.087Z,101170.31
2024-02-19T10:19:07.236Z,101167.27
2024-02-19T10:21:36.121Z,101164.36
2024-02-19T10:24:04.591Z,101165.11
2024-02-19T10:26:32.812Z,101160.80
2024-02-19T10:29:01.767Z,101155.27
2024-02-19T10:31:32.189Z,101152.65
2024-02-19T10:34:00.693Z,101147.49
2024-02-19T10:36:29.344Z,101147.58
2024-02-19T10:38:57.397Z,101139.84
2024-02-19T10:41:25.925Z,101133.15
2024-02-19T10:43:54.635Z,101131.08
2024-02-19T10:46:25.051Z,101125.89
2024-02-19T10:48:54.056Z,101120.73
2024-02-19T10:51:23.656Z,101116.27
2024-02-19T10:54:05.719Z,101114.90
2024-02-19T10:56:44.510Z,101113.54
2024-02-19T10:59:13.487Z,101107.27
2024-02-19T11:01:42.724Z,101102.23
2024-02-19T11:04:22.361Z,101096.10
2024-02-19T11:06:56.525Z,101090.03
2024-02-19T11:09:33.562Z,101084.82
2024-02-19T11:12:03.973Z,101079.77
2024-02-19T11:14:35.967Z,101073.52
2024-02-19T11:17:04.984Z,101069.88
2024-02-19T11:19:40.345Z,101068.16
2024-02-19T11:22:11.589Z,101057.89
2024-02-19T11:24:41.926Z,101054.11
2024-02-19T11:27:10.285Z,101047.42
2024-02-19T11:29:46.601Z,101050.27
2024-02-19T11:32:22.200Z,101047.02
2024-02-19T11:34:52.699Z,101037.71
2024-02-19T11:37:21.651Z,101039.15
2024-02-19T11:39:50.444Z,101037.96
2024-02-19T11:42:19.867Z,101035.27
2024-02-19T11:44:48.661Z,101034.67
2024-02-19T11:47:17.596Z,101032.56
2024-02-19T11:49:47.466Z,101030.14
2024-02-19T11:52:16.640Z,101027.25
2024-02-19T11:54:45.007Z,101026.88
2024-02-19T11:57:15.295Z,101026.65
2024-02-19T11:59:46.407Z,101024.49
2024-02-19T12:02:14.710Z,101023.27
2024-02-19T12:04:43.101Z,101022.91
2024-02-19T12:07:12.297Z,101024.58
2024-02-19T12:09:41.235Z,101018.94
2024-02-19T12:12:09.955Z,101015.73
2024-02-19T12:14:37.862Z,101018.70
2024-02-19T12:17:07.134Z,101012.77
2024-02-19T12:19:36.195Z,101008.35
2024-02-19T12:22:04.844Z,101007.27
2024-02-19T12:24:33.252Z,101007.03
2024-02-19T12:27:01.630Z,101005.00
2024-02-19T12:29:29.725Z,100999.89
2024-02-19T12:31:57.828Z,101001.08
2024-02-19T12:34:25.929Z,100996.30
2024-02-19T12:36:54.630Z,100997.04
2024-02-19T12:39:27.056Z,100998.27
2024-02-19T12:41:56.362Z,100990.35
2024-02-19T12:44:24.856Z,100991.77
2024-02-19T12:46:52.896Z,100988.71
2024-02-19T12:49:21.006Z,100985.25
2024-02-19T12:51:49.669Z,100984.35
2024-02-19T12:54:19.695Z,100980.06
2024-02-19T12:56:48.732Z,100976.46
2024-02-19T12:59:17.036Z,100973.14
2024-02-19T13:01:45.846Z,100972.83
2024-02-19T13:04:14.022Z,100973.36
2024-02-19T13:06:42.175Z,100976.80
2024-02-19T13:09:12.034Z,100976.33
2024-02-19T13:11:40.956Z,100973.21
2024-02-19T13:14:09.200Z,100974.04
2024-02-19T13:16:37.349Z,100970.67
2024-02-19T13:19:05.586Z,100969.59
2024-02-19T13:21:34.079Z,100967.64
2024-02-19T13:24:02.078Z,100970.14
2024-02-19T13:26:30.197Z,100971.64
2024-02-19T13:28:58.577Z,100966.61
2024-02-19T13:31:26.632Z,100967.33
2024-02-19T13:33:54.987Z,100966.52
2024-02-19T13:36:23.106Z,100969.84
2024-02-19T13:38:51.238Z,100969.17
2024-02-19T13:41:19.429Z,100969.45
2024-02-19T13:43:48.067Z,100969.73
2024-02-19T13:46:18.495Z,100970.16
2024-02-19T13:48:53.809Z,100969.52
2024-02-19T13:51:25.285Z,100970.40
2024-02-19T13:53:53.869Z,100972.23
2024-02-19T13:56:22.224Z,100970.53
2024-02-19T13:58:50.266Z,100972.78
2024-02-19T14:01:18.327Z,100974.70
2024-02-19T14:03:49.040Z,100971.77
2024-02-19T14:06:17.592Z,100974.95
2024-02-19T14:08:45.848Z,100970.52
2024-02-19T14:11:14.165Z,100969.38
2024-02-19T14:13:46.951Z,100970.64
2024-02-19T14:16:23.158Z,100970.97
2024-02-19T14:18:51.398Z,100971.59
2024-02-19T14:21:19.578Z,100969.44
2024-02-19T14:23:48.152Z,100969.02
2024-02-19T14:26:16.342Z,100970.48
2024-02-19T14:28:44.560Z,100970.33
2024-02-19T14:31:12.691Z,100971.89
2024-02-19T14:33:40.910Z,100973.81
2024-02-19T14:36:10.457Z,100970.23
2024-02-19T14:38:39.802Z,100967.48
2024-02-19T14:41:10.590Z,100968.00
2024-02-19T14:43:38.674Z,100966.80
2024-02-19T14:46:08.266Z,100968.42
2024-02-19T14:48:36.909Z,100968.86
2024-02-19T14:51:06.922Z,100970.28
2024-02-19T14:53:35.393Z,100968.59
2024-02-19T14:56:04.784Z,100963.25
2024-02-19T14:58:34.112Z,100958.60
2024-02-19T15:01:02.686Z,100957.42
2024-02-19T15:03:31.203Z,100952.80
2024-02-19T15:05:59.761Z,100952.48
2024-02-19T15:08:27.984Z,100952.83
2024-02-19T15:10:56.195Z,100957.58
2024-02-19T15:13:24.412Z,100959.86
2024-02-19T15:15:52.972Z,100959.48
2024-02-19T15:18:24.482Z,100962.69
2024-02-19T15:20:53.772Z,100959.48
2024-02-19T15:23:22.007Z,100958.48
2024-02-19T15:25:50.156Z,100957.51
2024-02-19T15:28:19.357Z,100954.80
2024-02-19T15:30:47.716Z,100955.60
2024-02-19T15:33:15.774Z,100949.89
2024-02-19T15:35:45.092Z,100945.73
2024-02-19T15:38:13.973Z,100945.80
2024-02-19T15:40:42.436Z,100942.02
2024-02-19T15:43:10.834Z,100940.69
2024-02-19T15:45:40.604Z,100937.06
2024-02-19T15:48:08.670Z,100934.69
2024-02-19T15:50:36.786Z,100940.91
2024-02-19T15:53:06.486Z,100939.19
2024-02-19T15:55:35.368Z,100937.85
2024-02-19T15:58:03.576Z,100938.45
2024-02-19T16:00:36.787Z,100939.36
2024-02-19T16:03:06.738Z,100940.45
2024-02-19T16:05:35.021Z,100942.94
2024-02-19T16:08:24.259Z,100941.25
2024-02-19T16:10:52.340Z,100941.84
2024-02-19T16:13:20.646Z,100940.30
2024-02-19T16:15:48.651Z,100940.17
2024-02-19T16:18:17.089Z,100940.19
2024-02-19T16:20:47.547Z,100939.70
2024-02-19T16:23:15.793Z,100940.95
2024-02-19T16:25:44.773Z,100939.63
2024-02-19T16:28:13.983Z,100938.27
2024-02-19T16:30:42.122Z,100938.70
2024-02-19T16:33:10.485Z,100936.98
2024-02-19T16:35:38.828Z,100936.29
2024-02-19T16:38:07.861Z,100934.36
2024-02-19T16:40:36.199Z,100931.23
2024-02-19T16:43:06.131Z,100930.70
2024-02-19T16:45:35.550Z,100927.62
2024-02-19T16:48:09.968Z,100931.13
2024-02-19T16:50:40.151Z,100934.30
2024-02-19T16:53:08.099Z,100932.73
2024-02-19T16:55:36.714Z,100933.44
2024-02-19T16:58:05.343Z,100933.95
2024-02-19T17:00:33.518Z,100934.89
2024-02-19T17:03:01.914Z,100931.95
2024-02-19T17:05:30.293Z,100931.10
2024-02-19T17:07:59.763Z,100930.98
2024-02-19T17:10:28.803Z,100930.88
2024-02-19T17:12:56.998Z,100928.68
2024-02-19T17:15:25.137Z,100932.88
2024-02-19T17:17:53.487Z,100932.73
2024-02-19T17:20:22.362Z,100932.81
2024-02-19T17:22:52.664Z,100930.95
2024-02-19T17:25:21.088Z,100929.60
2024-02-19T17:27:49.958Z,100932.45
2024-02-19T17:30:18.356Z,100930.77
2024-02-19T17:32:46.649Z,100929.05
2024-02-19T17:35:14.842Z,100927.66
2024-02-19T17:37:43.163Z,100928.20
2024-02-19T17:40:12.628Z,100927.14
2024-02-19T17:42:40.690Z,100929.24
2024-02-19T17:45:09.253Z,100930.33
2024-02-19T17:47:37.350Z,100932.96
2024-02-19T17:50:07.335Z,100933.51
2024-02-19T17:52:36.435Z,100931.25
2024-02-19T17:55:05.371Z,100926.91
2024-02-19T17:57:33.324Z,100927.94
2024-02-19T18:00:01.331Z,100932.18
2024-02-19T18:02:40.707Z,100931.14
2024-02-19T18:05:09.557Z,100933.30
2024-02-19T18:07:38.167Z,100933.56
2024-02-19T18:10:09.225Z,100935.39
2024-02-19T18:12:37.851Z,100939.34
2024-02-19T18:15:06.239Z,100936.33
2024-02-19T18:17:34.916Z,100936.38
2024-02-19T18:20:05.853Z,100934.88
2024-02-19T18:22:34.747Z,100936.48
2024-02-19T18:25:05.736Z,100935.31
2024-02-19T18:27:35.796Z,100936.73
2024-02-19T18:30:10.704Z,100936.64
2024-02-19T18:32:41.943Z,100939.70
2024-02-19T18:35:10.783Z,100943.41
2024-02-19T18:37:39.258Z,100941.39
2024-02-19T18:40:10.166Z,100942.17
2024-02-19T18:42:42.604Z,100940.32
2024-02-19T18:45:11.252Z,100937.44
2024-02-19T18:47:41.760Z,100939.34
2024-02-19T18:50:10.241Z,100943.35
2024-02-19T18:52:39.125Z,100939.59
2024-02-19T18:55:07.852Z,100940.33
2024-02-19T18:57:36.049Z,100942.82
2024-02-19T19:00:10.338Z,100944.40
2024-02-19T19:02:39.989Z,100946.19
2024-02-19T19:05:08.499Z,100943.30
2024-02-19T19:07:37.962Z,100939.92
2024-02-19T19:10:06.868Z,100940.19
2024-02-19T19:12:35.448Z,100939.21
2024-02-19T19:15:04.973Z,100939.64
2024-02-19T19:17:33.436Z,100940.05
2024-02-19T19:20:09.290Z,100943.13
2024-02-19T19:22:37.618Z,100941.27
2024-02-19T19:25:06.399Z,100939.61
2024-02-19T19:27:34.975Z,100936.90
2024-02-19T19:30:03.423Z,100938.88
2024-02-19T19:32:35.870Z,100939.27
2024-02-19T19:35:04.452Z,100938.60
2024-02-19T19:37:33.100Z,100938.64
2024-02-19T19:40:05.335Z,100941.81
2024-02-19T19:42:33.805Z,100942.21
2024-02-19T19:45:01.985Z,100943.25
2024-02-19T19:47:34.435Z,100939.95
2024-02-19T19:50:02.791Z,100939.94
2024-02-19T19:52:35.287Z,100943.27
2024-02-19T19:55:04.761Z,100944.88
2024-02-19T19:57:32.980Z,100945.05
2024-02-19T20:00:01.371Z,100946.95
2024-02-19T20:02:29.711Z,100951.11
2024-02-19T20:04:57.749Z,100948.46
2024-02-19T20:07:30.501Z,100947.91
2024-02-19T20:10:00.703Z,100947.90
2024-02-19T20:12:28.816Z,100952.27
2024-02-19T20:14:59.133Z,100959.01
2024-02-19T20:17:29.475Z,100959.44
2024-02-19T20:19:57.577Z,100956.20
2024-02-19T20:22:29.331Z,100953.99
2024-02-19T20:24:57.754Z,100955.61
2024-02-19T20:27:26.074Z,100960.35
2024-02-19T20:29:55.303Z,100956.27
2024-02-19T20:32:23.544Z,100960.35
2024-02-19T20:34:52.366Z,100958.02
2024-02-19T20:37:21.376Z,100954.63
2024-02-19T20:39:49.964Z,100955.39
2024-02-19T20:42:18.602Z,100957.17
2024-02-19T20:44:49.842Z,100962.13
2024-02-19T20:47:18.880Z,100964.41
2024-02-19T20:49:48.078Z,100969.83
2024-02-19T20:52:16.805Z,100972.17
2024-02-19T20:54:45.530Z,100963.89
2024-02-19T20:57:13.521Z,100950.56
2024-02-19T20:59:41.622Z,100949.39
2024-02-19T21:02:09.967Z,100954.09
2024-02-19T21:04:38.284Z,100956.02
2024-02-19T21:07:06.816Z,100954.80
2024-02-19T21:09:36.381Z,100950.99
2024-02-19T21:12:05.028Z,100948.06
2024-02-19T21:14:33.051Z,100946.52
2024-02-19T21:17:01.236Z,100941.44
2024-02-19T21:19:29.260Z,100939.33
2024-02-19T21:21:58.223Z,100940.34
2024-02-19T21:24:27.299Z,100937.70
2024-02-19T21:26:58.216Z,100939.61
2024-02-19T21:29:30.629Z,100935.44
2024-02-19T21:31:59.352Z,100937.33
2024-02-19T21:34:27.483Z,100938.71
2024-02-19T21:36:58.070Z,100935.61
2024-02-19T21:39:26.779Z,100935.80
2024-02-19T21:41:55.254Z,100937.23
2024-02-19T21:44:23.451Z,100935.54
2024-02-19T21:46:51.482Z,100933.11
2024-02-19T21:49:21.697Z,100934.55
2024-02-19T21:51:50.279Z,100933.36
2024-02-19T21:54:18.869Z,100930.27
2024-02-19T21:56:47.615Z,100926.47
2024-02-19T21:59:15.966Z,100929.76
2024-02-19T22:01:45.218Z,100932.89
2024-02-19T22:04:13.527Z,100932.38
2024-02-19T22:06:41.772Z,100934.48
2024-02-19T22:09:09.929Z,100931.04
2024-02-19T22:11:38.209Z,100932.27
2024-02-19T22:14:06.311Z,100927.27
2024-02-19T22:16:34.630Z,100927.81
2024-02-19T22:19:02.854Z,100924.88
2024-02-19T22:21:31.845Z,100924.70
2024-02-19T22:24:01.473Z,100922.27
2024-02-19T22:26:29.779Z,100918.85
2024-02-19T22:28:57.986Z,100923.95
2024-02-19T22:31:27.425Z,100922.73
2024-02-19T22:33:55.692Z,100919.80
2024-02-19T22:36:24.191Z,100917.90
2024-02-19T22:38:52.769Z,100917.59
2024-02-19T22:41:21.004Z,100914.52
2024-02-19T22:43:49.033Z,100909.66
2024-02-19T22:46:17.236Z,100909.16
2024-02-19T22:48:45.493Z,100906.73
2024-02-19T22:51:13.732Z,100909.16
2024-02-19T22:53:41.796Z,100907.64
2024-02-19T22:56:09.910Z,100903.30
2024-02-19T22:58:38.384Z,100898.30
2024-02-19T23:01:06.778Z,100904.21
2024-02-19T23:03:34.978Z,100899.02
2024-02-19T23:06:04.405Z,100896.57
2024-02-19T23:08:32.802Z,100895.71
2024-02-19T23:11:00.886Z,100898.16
2024-02-19T23:13:29.079Z,100896.61
2024-02-19T23:15:57.243Z,100899.52
2024-02-19T23:18:25.856Z,100896.08
2024-02-19T23:20:53.994Z,100901.14
2024-02-19T23:23:22.119Z,100903.39
2024-02-19T23:25:54.309Z,100904.41
2024-02-19T23:28:23.374Z,100903.18
2024-02-19T23:30:55.289Z,100903.36
2024-02-19T23:33:24.205Z,100901.29
2024-02-19T23:35:52.551Z,100899.20
2024-02-19T23:38:23.460Z,100900.21
2024-02-19T23:40:51.666Z,100899.70
2024-02-19T23:43:19.979Z,100900.21
2024-02-19T23:45:48.227Z,100900.38
2024-02-19T23:48:17.590Z,100899.14
2024-02-19T23:50:45.834Z,100896.54
2024-02-19T23:53:16.329Z,100894.81
2024-02-19T23:55:45.170Z,100894.64
2024-02-19T23:58:13.542Z,100892.53
